Time;durP1;ratioP1;P1;durP2;ratioP2;P2;SDS_P1;SDS_P2;PMS_P1;PMS_P2;Temp;Humidity;BMP_temperature;BMP_pressure;BME280_temperature;BME280_humidity;BME280_pressure;Samples;Min_cycle;Max_cycle;Signal;HPM_P1;HPM_P2
2021/10/19 00:00:15;;;;;;;12.57;7.45;;;15.30;86.40;;;;;;5069906;28;20049;-83
2021/10/19 00:02:43;;;;;;;11.27;6.68;;;15.30;86.40;;;;;;5070130;28;20052;-83
2021/10/19 00:05:11;;;;;;;10.80;7.20;;;15.30;86.40;;;;;;5069679;28;20053;-83
2021/10/19 00:07:38;;;;;;;8.75;6.63;;;15.30;86.40;;;;;;5069722;28;20501;-82
2021/10/19 00:10:07;;;;;;;9.75;6.97;;;15.30;86.40;;;;;;5069742;28;20053;-83
2021/10/19 00:12:35;;;;;;;12.55;7.40;;;15.30;86.40;;;;;;5069817;28;20113;-83
2021/10/19 00:15:04;;;;;;;10.30;7.18;;;15.30;86.40;;;;;;5069651;28;20106;-83
2021/10/19 00:17:31;;;;;;;9.68;7.82;;;15.30;86.50;;;;;;5069736;28;20113;-83
2021/10/19 00:19:58;;;;;;;11.70;8.00;;;15.30;86.50;;;;;;5069623;28;20052;-83
2021/10/19 00:22:25;;;;;;;11.57;7.53;;;15.30;86.50;;;;;;5069626;28;20467;-83
2021/10/19 00:24:51;;;;;;;10.02;6.78;;;15.30;86.50;;;;;;5069658;28;20086;-83
2021/10/19 00:27:18;;;;;;;9.48;7.47;;;15.30;86.50;;;;;;5069501;28;20525;-83
2021/10/19 00:29:45;;;;;;;9.80;6.80;;;15.30;86.60;;;;;;5070126;28;20044;-83
2021/10/19 00:32:12;;;;;;;9.23;7.10;;;15.30;86.60;;;;;;5069266;28;20060;-83
2021/10/19 00:34:39;;;;;;;11.10;6.95;;;15.40;86.60;;;;;;5071089;28;20043;-83
2021/10/19 00:37:06;;;;;;;9.35;6.72;;;15.40;86.60;;;;;;5072867;28;20515;-83
2021/10/19 00:39:33;;;;;;;9.68;7.05;;;15.40;86.60;;;;;;5073069;28;20505;-83
2021/10/19 00:42:00;;;;;;;8.85;6.47;;;15.40;86.60;;;;;;5073308;28;20052;-83
2021/10/19 00:44:26;;;;;;;13.38;7.40;;;15.40;86.60;;;;;;5072235;28;20052;-83
2021/10/19 00:46:54;;;;;;;10.75;7.13;;;15.40;86.60;;;;;;5072634;28;20047;-83
2021/10/19 00:49:20;;;;;;;8.60;7.10;;;15.40;86.60;;;;;;5072771;28;20044;-83
2021/10/19 00:51:47;;;;;;;9.82;7.18;;;15.40;86.60;;;;;;5072898;28;20063;-82
2021/10/19 00:54:15;;;;;;;9.40;7.55;;;15.40;86.60;;;;;;5072799;28;20061;-82
2021/10/19 00:56:41;;;;;;;7.60;6.05;;;15.40;86.60;;;;;;5073318;28;20048;-83
2021/10/19 00:59:09;;;;;;;9.13;7.18;;;15.40;86.60;;;;;;5072573;28;20452;-83
2021/10/19 01:01:36;;;;;;;10.48;7.97;;;15.40;86.60;;;;;;5072263;28;20041;-83
2021/10/19 01:04:04;;;;;;;10.02;7.57;;;15.40;86.60;;;;;;5072701;28;20145;-82
2021/10/19 01:06:30;;;;;;;10.55;6.95;;;15.40;86.60;;;;;;5072535;28;20463;-83
2021/10/19 01:08:58;;;;;;;10.18;7.43;;;15.40;86.60;;;;;;5072985;28;20049;-82
2021/10/19 01:11:25;;;;;;;12.00;8.63;;;15.40;86.60;;;;;;5072965;28;20044;-83
2021/10/19 01:13:52;;;;;;;14.70;8.60;;;15.40;86.60;;;;;;5072384;28;20063;-83
2021/10/19 01:16:19;;;;;;;8.57;6.63;;;15.40;86.60;;;;;;5072095;28;20040;-82
2021/10/19 01:18:46;;;;;;;10.90;7.57;;;15.40;86.70;;;;;;5072274;28;20509;-83
2021/10/19 01:21:13;;;;;;;14.00;7.75;;;15.40;86.70;;;;;;5072554;28;20048;-83
2021/10/19 01:23:40;;;;;;;12.57;8.85;;;15.40;86.70;;;;;;5072927;28;20110;-83
2021/10/19 01:26:09;;;;;;;9.35;6.97;;;15.50;86.70;;;;;;5070893;28;20459;-83
2021/10/19 01:28:42;;;;;;;10.70;8.35;;;15.50;86.70;;;;;;5072181;28;20059;-83
2021/10/19 01:31:11;;;;;;;13.73;7.68;;;15.40;86.70;;;;;;5071788;28;20040;-82
2021/10/19 01:33:39;;;;;;;9.98;7.53;;;15.40;86.70;;;;;;5070718;28;20051;-82
2021/10/19 01:36:07;;;;;;;11.18;8.13;;;15.50;86.70;;;;;;5072172;28;20106;-83
2021/10/19 01:38:34;;;;;;;10.02;7.43;;;15.40;86.70;;;;;;5070387;28;20126;-82
2021/10/19 01:41:03;;;;;;;9.73;7.55;;;15.40;86.70;;;;;;5071900;28;20059;-83
2021/10/19 01:43:30;;;;;;;9.70;7.47;;;15.50;86.70;;;;;;5071789;28;20101;-82
2021/10/19 01:46:00;;;;;;;11.80;8.90;;;15.50;86.70;;;;;;5071405;28;20056;-83
2021/10/19 01:48:28;;;;;;;9.77;6.22;;;15.50;86.70;;;;;;5056314;28;20055;-83
2021/10/19 01:50:56;;;;;;;10.73;8.30;;;15.50;86.70;;;;;;5072227;28;20052;-83
2021/10/19 01:53:23;;;;;;;10.45;7.65;;;15.50;86.70;;;;;;5071395;28;20444;-83
2021/10/19 01:55:51;;;;;;;9.85;7.38;;;15.50;86.70;;;;;;5071613;28;20040;-83
2021/10/19 01:58:23;;;;;;;11.57;8.63;;;15.50;86.70;;;;;;5071149;28;20078;-83
2021/10/19 02:00:51;;;;;;;15.52;8.98;;;15.50;86.70;;;;;;5071589;28;20037;-83
2021/10/19 02:03:19;;;;;;;10.95;8.15;;;15.50;86.70;;;;;;5071525;28;20071;-82
2021/10/19 02:05:47;;;;;;;9.65;7.00;;;15.50;86.70;;;;;;5071959;28;20041;-82
2021/10/19 02:08:14;;;;;;;19.73;8.93;;;15.50;86.70;;;;;;5071433;28;20524;-83
2021/10/19 02:10:41;;;;;;;11.68;8.23;;;15.50;86.70;;;;;;5071256;28;20097;-83
2021/10/19 02:13:09;;;;;;;8.93;7.45;;;15.50;86.70;;;;;;5070858;28;20048;-82
2021/10/19 02:15:36;;;;;;;10.25;8.13;;;15.50;86.70;;;;;;5071303;28;20040;-83
2021/10/19 02:18:04;;;;;;;10.60;8.38;;;15.50;86.70;;;;;;5069984;28;20052;-82
2021/10/19 02:20:31;;;;;;;9.63;7.22;;;15.60;86.70;;;;;;5071699;28;20094;-82
2021/10/19 02:22:59;;;;;;;13.57;9.25;;;15.60;86.70;;;;;;5071065;28;20117;-83
2021/10/19 02:25:26;;;;;;;14.43;9.23;;;15.60;86.70;;;;;;5070890;28;20053;-83
2021/10/19 02:27:53;;;;;;;11.00;8.63;;;15.60;86.70;;;;;;5070713;28;20040;-82
2021/10/19 02:30:21;;;;;;;13.55;9.65;;;15.60;86.70;;;;;;5071120;28;20041;-82
2021/10/19 02:32:48;;;;;;;14.38;9.07;;;15.60;86.70;;;;;;5071439;28;20485;-82
2021/10/19 02:35:17;;;;;;;11.05;7.95;;;15.60;86.70;;;;;;5070936;28;20476;-83
2021/10/19 02:37:45;;;;;;;17.70;9.45;;;15.60;86.80;;;;;;5070615;28;20049;-83
2021/10/19 02:40:15;;;;;;;13.40;8.77;;;15.60;86.70;;;;;;5070839;28;20056;-83
2021/10/19 02:42:43;;;;;;;12.57;8.45;;;15.60;86.80;;;;;;5070548;28;20041;-83
2021/10/19 02:45:12;;;;;;;11.65;8.93;;;15.60;86.80;;;;;;5070770;28;20048;-82
2021/10/19 02:47:40;;;;;;;12.23;9.07;;;15.60;86.80;;;;;;5071191;28;20048;-81
2021/10/19 02:50:08;;;;;;;10.10;7.68;;;15.60;86.80;;;;;;5070591;28;20052;-83
2021/10/19 02:52:35;;;;;;;11.70;8.48;;;15.60;86.80;;;;;;5070459;28;20040;-82
2021/10/19 02:55:02;;;;;;;15.07;9.00;;;15.60;86.80;;;;;;5070406;28;20056;-83
2021/10/19 02:57:29;;;;;;;14.95;8.70;;;15.60;86.90;;;;;;5069696;28;20098;-83
2021/10/19 02:59:57;;;;;;;10.75;8.38;;;15.60;86.90;;;;;;5070825;28;20056;-82
2021/10/19 03:02:24;;;;;;;14.30;9.35;;;15.60;86.90;;;;;;5070343;28;20094;-83
2021/10/19 03:04:51;;;;;;;11.23;8.23;;;15.60;86.90;;;;;;5070318;28;20056;-83
2021/10/19 03:07:18;;;;;;;11.68;8.82;;;15.60;86.90;;;;;;5070406;28;20154;-83
2021/10/19 03:09:45;;;;;;;13.82;8.05;;;15.70;86.90;;;;;;5070677;28;20106;-82
2021/10/19 03:12:12;;;;;;;15.82;9.02;;;15.60;86.90;;;;;;5070300;28;20049;-84
2021/10/19 03:14:39;;;;;;;10.75;7.80;;;15.70;86.90;;;;;;5070849;28;20086;-84
2021/10/19 03:17:05;;;;;;;13.35;9.10;;;15.70;86.90;;;;;;5070340;28;20459;-84
2021/10/19 03:19:32;;;;;;;11.57;8.80;;;15.70;86.90;;;;;;5069898;28;20052;-84
2021/10/19 03:21:59;;;;;;;11.30;8.35;;;15.70;86.90;;;;;;5069559;28;20459;-83
2021/10/19 03:24:26;;;;;;;9.10;7.45;;;15.70;86.90;;;;;;5070291;28;20040;-84
2021/10/19 03:26:53;;;;;;;11.02;7.75;;;15.70;86.90;;;;;;5070288;28;20535;-82
2021/10/19 03:29:21;;;;;;;9.35;7.95;;;15.70;86.90;;;;;;5070462;28;20048;-82
2021/10/19 03:31:48;;;;;;;10.00;7.55;;;15.70;86.90;;;;;;5070097;28;20041;-82
2021/10/19 03:34:15;;;;;;;12.07;8.05;;;15.70;86.90;;;;;;5070066;28;20504;-83
2021/10/19 03:36:42;;;;;;;8.32;6.72;;;15.70;86.90;;;;;;5070187;28;20105;-82
2021/10/19 03:39:09;;;;;;;8.48;6.97;;;15.70;86.90;;;;;;5069977;28;20575;-82
2021/10/19 03:41:36;;;;;;;10.90;6.95;;;15.70;87.00;;;;;;5070363;28;20052;-82
2021/10/19 03:44:03;;;;;;;8.05;6.35;;;15.70;86.90;;;;;;5069886;28;20540;-82
2021/10/19 03:46:30;;;;;;;10.40;6.53;;;15.80;86.90;;;;;;5069905;28;20090;-82
2021/10/19 03:48:57;;;;;;;9.38;6.55;;;15.70;86.90;;;;;;5069892;28;20056;-83
2021/10/19 03:51:24;;;;;;;9.02;7.18;;;15.70;86.90;;;;;;5070044;28;20091;-83
2021/10/19 03:53:51;;;;;;;9.43;6.95;;;15.80;86.90;;;;;;5066296;28;20060;-83
2021/10/19 03:56:18;;;;;;;8.43;6.60;;;15.70;86.90;;;;;;5069519;28;20049;-82
2021/10/19 03:58:44;;;;;;;11.52;7.00;;;15.80;86.90;;;;;;5069840;28;20483;-82
2021/10/19 04:01:11;;;;;;;17.05;7.22;;;15.70;86.90;;;;;;5069802;28;20570;-83
2021/10/19 04:03:38;;;;;;;11.52;7.85;;;15.80;86.90;;;;;;5069806;28;20132;-83
2021/10/19 04:06:07;;;;;;;9.75;6.93;;;15.80;87.00;;;;;;5069792;28;20051;-83
2021/10/19 04:08:34;;;;;;;15.80;9.57;;;15.80;87.00;;;;;;5068155;28;20475;-82
2021/10/19 04:11:01;;;;;;;12.10;7.75;;;15.80;87.00;;;;;;5073399;28;20044;-83
2021/10/19 04:13:28;;;;;;;12.15;8.35;;;15.80;87.00;;;;;;5073313;28;20497;-82
2021/10/19 04:15:55;;;;;;;14.50;9.02;;;15.80;87.00;;;;;;5073568;28;20048;-83
2021/10/19 04:18:22;;;;;;;13.65;9.82;;;15.80;87.00;;;;;;5073574;28;20036;-84
2021/10/19 04:20:49;;;;;;;15.00;10.70;;;15.80;87.00;;;;;;5074148;28;20113;-83
2021/10/19 04:23:16;;;;;;;15.57;10.70;;;15.80;87.10;;;;;;5072940;28;20398;-83
2021/10/19 04:25:42;;;;;;;15.18;9.45;;;15.80;87.10;;;;;;5073154;28;20103;-84
2021/10/19 04:28:09;;;;;;;13.32;10.27;;;15.90;87.10;;;;;;5073196;28;20566;-83
2021/10/19 04:30:37;;;;;;;14.77;10.52;;;15.80;87.10;;;;;;5073300;28;20044;-83
2021/10/19 04:33:04;;;;;;;17.58;10.82;;;15.90;87.10;;;;;;5073368;28;20044;-83
2021/10/19 04:35:31;;;;;;;17.92;12.32;;;15.90;87.10;;;;;;5073025;28;20052;-83
2021/10/19 04:37:58;;;;;;;15.43;11.20;;;15.90;87.10;;;;;;5072633;28;20079;-83
2021/10/19 04:40:25;;;;;;;18.83;11.48;;;15.90;87.10;;;;;;5072895;28;20044;-83
2021/10/19 04:42:52;;;;;;;17.92;11.85;;;15.90;87.10;;;;;;5073030;28;20044;-82
2021/10/19 04:45:20;;;;;;;20.70;14.55;;;15.90;87.10;;;;;;5073068;28;20664;-82
2021/10/19 04:47:47;;;;;;;14.52;10.43;;;15.90;87.20;;;;;;5073381;28;20045;-83
2021/10/19 04:50:14;;;;;;;28.05;16.05;;;15.90;87.20;;;;;;5072784;28;20071;-83
2021/10/19 04:52:41;;;;;;;27.25;16.15;;;15.90;87.20;;;;;;5072543;28;20048;-82
2021/10/19 04:55:08;;;;;;;25.10;15.65;;;15.90;87.20;;;;;;5072735;28;20057;-82
2021/10/19 04:57:35;;;;;;;25.85;16.83;;;15.90;87.20;;;;;;5072885;28;20094;-82
2021/10/19 05:00:03;;;;;;;23.17;16.02;;;15.90;87.20;;;;;;5072807;28;20056;-83
2021/10/19 05:02:30;;;;;;;27.63;16.50;;;15.90;87.30;;;;;;5073088;28;20078;-82
2021/10/19 05:04:57;;;;;;;35.00;18.70;;;15.90;87.30;;;;;;5072549;28;20102;-81
2021/10/19 05:07:24;;;;;;;25.58;16.20;;;16.00;87.30;;;;;;5072347;28;20069;-82
2021/10/19 05:09:51;;;;;;;26.48;16.80;;;16.00;87.30;;;;;;5072690;28;20106;-82
2021/10/19 05:12:18;;;;;;;25.05;16.00;;;16.00;87.30;;;;;;5072577;28;20056;-82
2021/10/19 05:14:45;;;;;;;25.70;16.73;;;16.00;87.30;;;;;;5073052;28;20056;-83
2021/10/19 05:17:12;;;;;;;28.23;18.55;;;16.00;87.40;;;;;;5072356;28;20493;-82
2021/10/19 05:19:39;;;;;;;27.95;16.10;;;16.00;87.40;;;;;;5071844;28;20086;-83
2021/10/19 05:22:05;;;;;;;27.95;16.85;;;16.00;87.40;;;;;;5072023;28;20492;-83
2021/10/19 05:24:32;;;;;;;27.65;18.65;;;16.10;87.40;;;;;;5072336;28;20150;-82
2021/10/19 05:26:59;;;;;;;28.90;16.48;;;16.10;87.40;;;;;;5072386;28;20102;-82
2021/10/19 05:29:26;;;;;;;28.92;17.15;;;16.10;87.40;;;;;;5071610;28;20048;-82
2021/10/19 05:31:53;;;;;;;24.27;15.65;;;16.10;87.40;;;;;;5072241;28;20493;-83
2021/10/19 05:34:20;;;;;;;26.98;16.13;;;16.10;87.40;;;;;;5072020;28;20059;-82
2021/10/19 05:36:46;;;;;;;20.60;14.23;;;16.10;87.40;;;;;;5071707;28;20094;-82
2021/10/19 05:39:15;;;;;;;25.42;13.52;;;16.10;87.50;;;;;;5072031;28;20044;-82
2021/10/19 05:41:43;;;;;;;30.95;16.70;;;16.20;87.40;;;;;;5072431;28;20090;-82
2021/10/19 05:44:10;;;;;;;27.70;17.65;;;16.20;87.40;;;;;;5072010;28;20106;-82
2021/10/19 05:46:37;;;;;;;27.05;16.77;;;16.20;87.40;;;;;;5071823;28;20041;-82
2021/10/19 05:49:05;;;;;;;28.38;16.15;;;16.20;87.50;;;;;;5071704;28;20394;-82
2021/10/19 05:51:32;;;;;;;28.00;16.92;;;16.20;87.50;;;;;;5071454;28;20090;-82
2021/10/19 05:53:59;;;;;;;28.45;15.57;;;16.20;87.50;;;;;;5071889;28;20543;-82
2021/10/19 05:56:27;;;;;;;31.83;17.67;;;16.30;87.50;;;;;;5071056;28;20041;-82
2021/10/19 05:58:53;;;;;;;27.92;16.80;;;16.20;87.50;;;;;;5071438;28;20475;-82
2021/10/19 06:01:20;;;;;;;29.60;16.48;;;16.30;87.50;;;;;;5071452;28;20049;-82
2021/10/19 06:03:47;;;;;;;32.17;17.30;;;16.30;87.50;;;;;;5071417;28;20045;-82
2021/10/19 06:06:15;;;;;;;30.92;16.25;;;16.20;87.60;;;;;;5071121;28;20061;-82
2021/10/19 06:08:42;;;;;;;24.05;15.48;;;16.30;87.60;;;;;;5072097;28;20094;-82
2021/10/19 06:11:09;;;;;;;27.75;15.60;;;16.30;87.60;;;;;;5071246;28;20052;-82
2021/10/19 06:13:36;;;;;;;29.75;16.00;;;16.30;87.60;;;;;;5071152;28;20045;-82
2021/10/19 06:16:03;;;;;;;28.48;15.73;;;16.30;87.60;;;;;;5071184;28;20052;-83
2021/10/19 06:18:30;;;;;;;27.15;16.10;;;16.40;87.60;;;;;;5071116;28;20467;-82
2021/10/19 06:20:57;;;;;;;31.58;16.83;;;16.40;87.70;;;;;;5071259;28;20094;-82
2021/10/19 06:23:23;;;;;;;27.33;15.30;;;16.40;87.70;;;;;;5071502;28;20057;-82
2021/10/19 06:25:51;;;;;;;28.13;16.00;;;16.40;87.70;;;;;;5070808;28;20048;-82
2021/10/19 06:28:19;;;;;;;38.22;15.88;;;16.40;87.70;;;;;;5070956;28;20114;-82
2021/10/19 06:30:46;;;;;;;35.33;17.75;;;16.40;87.70;;;;;;5070984;28;20089;-82
2021/10/19 06:33:13;;;;;;;28.58;15.60;;;16.40;87.60;;;;;;5070303;28;20048;-82
2021/10/19 06:35:41;;;;;;;22.55;13.50;;;16.40;87.70;;;;;;5071074;28;20050;-82
2021/10/19 06:38:08;;;;;;;25.85;14.50;;;16.40;87.70;;;;;;5070842;28;20079;-82
2021/10/19 06:40:35;;;;;;;24.08;13.93;;;16.40;87.70;;;;;;5070681;28;20129;-82
2021/10/19 06:43:05;;;;;;;27.48;15.25;;;16.40;87.70;;;;;;5070574;28;20048;-83
2021/10/19 06:45:32;;;;;;;25.10;14.65;;;16.40;87.70;;;;;;5070653;28;20048;-83
2021/10/19 06:48:00;;;;;;;29.33;15.18;;;16.40;87.70;;;;;;5071053;28;20099;-82
2021/10/19 06:50:27;;;;;;;25.45;15.20;;;16.40;87.70;;;;;;5069838;28;20053;-83
2021/10/19 06:52:54;;;;;;;31.75;15.50;;;16.40;87.70;;;;;;5070516;28;20097;-83
2021/10/19 06:55:22;;;;;;;28.02;14.77;;;16.50;87.70;;;;;;5070666;28;20114;-83
2021/10/19 06:57:49;;;;;;;23.98;12.73;;;16.40;87.60;;;;;;5069183;28;20062;-83
2021/10/19 07:00:17;;;;;;;21.85;13.02;;;16.40;87.60;;;;;;5070541;28;20040;-83
2021/10/19 07:02:45;;;;;;;26.88;13.88;;;16.50;87.60;;;;;;5071469;28;20052;-82
2021/10/19 07:05:13;;;;;;;21.00;14.00;;;16.50;87.60;;;;;;5068761;28;20062;-82
2021/10/19 07:07:41;;;;;;;25.67;13.02;;;16.50;87.60;;;;;;5073181;28;20040;-82
2021/10/19 07:10:10;;;;;;;24.38;13.02;;;16.50;87.60;;;;;;5071971;28;20116;-83
2021/10/19 07:12:39;;;;;;;25.90;14.05;;;16.50;87.60;;;;;;5069271;28;20091;-82
2021/10/19 07:15:08;;;;;;;20.35;12.85;;;16.50;87.60;;;;;;5072496;28;20087;-82
2021/10/19 07:17:37;;;;;;;28.15;13.07;;;16.50;87.60;;;;;;5084428;28;20051;-83
2021/10/19 07:20:05;;;;;;;23.25;14.18;;;16.50;87.60;;;;;;5074099;28;20052;-83
2021/10/19 07:22:32;;;;;;;28.05;14.45;;;16.50;87.60;;;;;;5072018;28;20060;-83
2021/10/19 07:25:01;;;;;;;26.95;14.27;;;16.50;87.60;;;;;;5071712;28;20051;-82
2021/10/19 07:27:28;;;;;;;26.67;14.02;;;16.50;87.70;;;;;;5068137;28;20044;-83
2021/10/19 07:29:54;;;;;;;29.48;14.27;;;16.50;87.70;;;;;;5075340;28;20049;-86
2021/10/19 07:32:21;;;;;;;27.02;13.50;;;16.60;87.70;;;;;;5073649;28;20045;-86
2021/10/19 07:34:48;;;;;;;26.92;14.25;;;16.60;87.70;;;;;;5072093;28;20052;-86
2021/10/19 07:37:15;;;;;;;30.10;14.02;;;16.60;87.70;;;;;;5071876;28;20450;-87
2021/10/19 07:39:43;;;;;;;25.60;12.70;;;16.60;87.70;;;;;;5069643;28;20041;-86
2021/10/19 07:42:11;;;;;;;23.27;12.82;;;16.60;87.80;;;;;;5071329;28;20056;-85
2021/10/19 07:44:39;;;;;;;27.25;13.45;;;16.60;87.70;;;;;;5078170;28;20106;-85
2021/10/19 07:47:05;;;;;;;20.88;12.10;;;16.60;87.80;;;;;;5077035;28;20048;-85
2021/10/19 07:49:32;;;;;;;22.30;12.00;;;16.60;87.70;;;;;;5077702;28;20045;-85
2021/10/19 07:51:59;;;;;;;23.50;13.20;;;16.70;87.80;;;;;;5074721;28;20105;-86
2021/10/19 07:54:27;;;;;;;24.20;11.88;;;16.70;87.80;;;;;;5071395;28;20463;-85
2021/10/19 07:56:54;;;;;;;26.85;12.65;;;16.70;87.80;;;;;;5079718;28;20505;-86
2021/10/19 07:59:26;;;;;;;24.10;13.25;;;16.70;87.80;;;;;;5077057;28;20167;-86
2021/10/19 08:01:52;;;;;;;25.25;13.45;;;16.70;87.80;;;;;;5074833;28;20045;-86
2021/10/19 08:04:19;;;;;;;25.33;13.32;;;16.70;87.80;;;;;;5075978;28;20128;-85
2021/10/19 08:06:46;;;;;;;22.23;12.75;;;16.70;87.80;;;;;;5073901;28;20500;-85
2021/10/19 08:09:13;;;;;;;24.55;13.00;;;16.70;87.80;;;;;;5073575;28;20098;-85
2021/10/19 08:11:40;;;;;;;23.35;12.73;;;16.70;87.80;;;;;;5078370;28;20533;-86
2021/10/19 08:14:07;;;;;;;25.63;12.93;;;16.70;87.80;;;;;;5075069;28;20551;-85
2021/10/19 08:16:34;;;;;;;24.98;12.65;;;16.80;87.80;;;;;;5074837;28;20048;-85
2021/10/19 08:19:01;;;;;;;23.45;12.95;;;16.80;87.80;;;;;;5075330;28;20101;-84
2021/10/19 08:21:30;;;;;;;17.63;11.32;;;16.70;87.80;;;;;;5071354;28;20055;-85
2021/10/19 08:23:59;;;;;;;19.23;11.57;;;16.80;87.90;;;;;;5077167;28;20049;-86
2021/10/19 08:26:30;;;;;;;18.80;10.85;;;16.80;87.80;;;;;;5077731;28;20513;-85
2021/10/19 08:28:59;;;;;;;18.17;10.90;;;16.80;87.80;;;;;;5075337;28;20040;-86
2021/10/19 08:31:26;;;;;;;20.67;11.68;;;16.80;87.90;;;;;;5074543;28;20056;-85
2021/10/19 08:33:53;;;;;;;18.67;10.90;;;16.80;87.80;;;;;;5076425;28;20123;-85
2021/10/19 08:36:20;;;;;;;17.02;11.00;;;16.80;87.90;;;;;;5071546;28;20099;-85
2021/10/19 08:38:49;;;;;;;19.15;10.80;;;16.80;87.80;;;;;;5078409;28;20044;-87
2021/10/19 08:41:17;;;;;;;19.30;10.48;;;16.80;87.90;;;;;;5074905;28;20101;-85
2021/10/19 08:43:46;;;;;;;18.45;10.30;;;16.90;87.90;;;;;;5074776;28;20102;-85
2021/10/19 08:46:14;;;;;;;17.35;9.73;;;16.90;87.90;;;;;;5074507;28;20090;-85
2021/10/19 08:48:42;;;;;;;21.77;11.43;;;16.90;87.90;;;;;;5072730;28;20124;-85
2021/10/19 08:51:11;;;;;;;26.27;12.18;;;16.90;87.90;;;;;;5085189;28;20105;-86
2021/10/19 08:53:40;;;;;;;22.23;12.40;;;16.90;87.90;;;;;;5076788;28;20052;-86
2021/10/19 08:56:08;;;;;;;21.55;11.23;;;16.90;87.90;;;;;;5073942;28;20114;-86
2021/10/19 08:58:38;;;;;;;21.10;10.75;;;16.90;87.90;;;;;;5074777;28;20044;-86
2021/10/19 09:01:07;;;;;;;20.85;10.68;;;16.90;88.00;;;;;;5074380;28;20074;-86
2021/10/19 09:03:44;;;;;;;15.88;10.35;;;16.90;88.00;;;;;;5071774;28;20047;-85
2021/10/19 09:06:11;;;;;;;18.98;10.23;;;16.90;88.00;;;;;;5073348;28;20052;-85
2021/10/19 09:08:44;;;;;;;19.02;10.88;;;17.00;88.00;;;;;;5076745;28;20102;-85
2021/10/19 09:11:14;;;;;;;25.73;12.13;;;17.00;88.00;;;;;;5074207;28;20569;-86
2021/10/19 09:13:52;;;;;;;22.75;11.00;;;17.00;88.00;;;;;;5074032;28;20048;-86
2021/10/19 09:16:38;;;;;;;20.30;11.45;;;17.10;88.10;;;;;;5073982;28;20056;-85
2021/10/19 09:19:11;;;;;;;19.08;9.55;;;17.10;88.10;;;;;;5073836;28;20040;-85
2021/10/19 09:21:55;;;;;;;21.02;11.50;;;17.20;88.00;;;;;;5072628;28;20094;-85
2021/10/19 09:24:27;;;;;;;19.25;10.38;;;17.20;88.10;;;;;;5068947;28;20459;-86
2021/10/19 09:27:16;;;;;;;23.38;11.43;;;17.20;88.00;;;;;;5086339;28;20106;-86
2021/10/19 09:29:46;;;;;;;17.98;10.77;;;17.20;88.00;;;;;;5076950;28;20094;-86
2021/10/19 09:32:14;;;;;;;17.77;9.98;;;17.20;88.00;;;;;;5074128;28;20106;-86
2021/10/19 09:34:44;;;;;;;16.42;9.57;;;17.20;88.00;;;;;;5073918;28;20106;-87
2021/10/19 09:37:18;;;;;;;13.65;9.30;;;17.30;88.00;;;;;;5075127;28;20537;-86
2021/10/19 09:39:49;;;;;;;18.83;9.73;;;17.30;88.00;;;;;;5072548;28;20117;-85
2021/10/19 09:42:27;;;;;;;20.08;10.13;;;17.30;88.00;;;;;;5071345;28;20570;-85
2021/10/19 09:45:00;;;;;;;23.83;11.38;;;17.40;88.00;;;;;;5084134;28;20126;-87
2021/10/19 09:47:36;;;;;;;17.33;10.45;;;17.40;88.00;;;;;;5074485;28;20048;-85
2021/10/19 09:50:08;;;;;;;15.50;9.38;;;17.40;88.00;;;;;;5074567;28;20489;-87
2021/10/19 09:52:39;;;;;;;19.88;10.55;;;17.40;88.10;;;;;;5073161;28;20045;-86
2021/10/19 09:55:09;;;;;;;15.85;8.85;;;17.40;88.00;;;;;;5073338;28;20475;-86
2021/10/19 09:57:39;;;;;;;14.05;9.07;;;17.50;88.00;;;;;;5070311;28;20037;-86
2021/10/19 10:00:07;;;;;;;18.88;9.45;;;17.50;88.00;;;;;;5073010;28;20128;-85
2021/10/19 10:02:36;;;;;;;14.02;9.20;;;17.50;88.00;;;;;;5074808;28;20044;-87
2021/10/19 10:05:06;;;;;;;14.40;9.93;;;17.50;88.00;;;;;;5073588;28;20067;-84
2021/10/19 10:07:39;;;;;;;16.60;9.43;;;17.60;87.90;;;;;;5072217;28;20504;-86
2021/10/19 10:10:08;;;;;;;14.13;8.50;;;17.60;87.90;;;;;;5073170;28;20043;-86
2021/10/19 10:12:35;;;;;;;25.02;10.80;;;17.70;87.90;;;;;;5069474;28;20045;-85
2021/10/19 10:15:03;;;;;;;14.27;9.05;;;17.70;87.90;;;;;;5073936;28;20044;-83
2021/10/19 10:17:29;;;;;;;13.13;8.43;;;17.70;87.90;;;;;;5074767;28;20052;-84
2021/10/19 10:20:07;;;;;;;13.85;10.02;;;17.80;87.80;;;;;;5073140;28;20053;-83
2021/10/19 10:22:43;;;;;;;14.00;9.00;;;17.80;87.80;;;;;;5072881;28;20045;-82
2021/10/19 10:25:14;;;;;;;19.98;9.27;;;17.80;87.70;;;;;;5072721;28;20048;-82
2021/10/19 10:27:42;;;;;;;15.02;9.30;;;17.80;87.70;;;;;;5070286;28;20082;-84
2021/10/19 10:30:25;;;;;;;16.90;9.10;;;17.80;87.70;;;;;;5072744;28;20044;-84
2021/10/19 10:32:55;;;;;;;17.10;8.43;;;17.90;87.60;;;;;;5084724;28;20052;-84
2021/10/19 10:35:25;;;;;;;17.17;10.18;;;17.90;87.60;;;;;;5075026;28;20048;-83
2021/10/19 10:37:54;;;;;;;13.80;8.45;;;17.90;87.50;;;;;;5072190;28;20078;-83
2021/10/19 10:40:35;;;;;;;18.23;9.88;;;17.90;87.50;;;;;;5072237;28;20501;-81
2021/10/19 10:43:32;;;;;;;16.70;9.50;;;17.90;87.50;;;;;;5072435;28;20420;-83
2021/10/19 10:46:14;;;;;;;14.07;8.73;;;17.90;87.50;;;;;;5072269;28;20466;-84
2021/10/19 10:48:42;;;;;;;13.20;8.00;;;18.00;87.40;;;;;;5070475;28;20049;-82
2021/10/19 10:51:11;;;;;;;14.43;8.52;;;18.00;87.40;;;;;;5072218;28;20041;-83
2021/10/19 10:53:46;;;;;;;17.05;8.48;;;18.10;87.40;;;;;;5074962;28;20110;-84
2021/10/19 10:56:15;;;;;;;15.02;8.95;;;18.00;87.30;;;;;;5072410;28;20500;-83
2021/10/19 10:58:43;;;;;;;15.25;8.32;;;18.10;87.30;;;;;;5072317;28;20102;-84
2021/10/19 11:01:19;;;;;;;16.27;8.23;;;18.10;87.20;;;;;;5072244;28;20048;-83
2021/10/19 11:03:55;;;;;;;12.43;8.55;;;18.20;87.20;;;;;;5070698;28;20120;-83
2021/10/19 11:06:23;;;;;;;13.80;8.45;;;18.20;87.10;;;;;;5068260;28;20064;-84
2021/10/19 11:08:59;;;;;;;16.20;8.63;;;18.20;87.10;;;;;;5076610;28;20421;-84
2021/10/19 11:11:30;;;;;;;12.43;8.77;;;18.30;87.00;;;;;;5073496;28;20057;-84
2021/10/19 11:14:00;;;;;;;12.75;8.35;;;18.30;87.00;;;;;;5071642;28;20040;-83
2021/10/19 11:16:41;;;;;;;11.95;8.40;;;18.30;86.90;;;;;;5072107;28;20126;-83
2021/10/19 11:19:21;;;;;;;13.45;8.15;;;18.40;86.80;;;;;;5071624;28;20101;-83
2021/10/19 11:21:55;;;;;;;12.93;7.85;;;18.40;86.70;;;;;;5070696;28;20044;-83
2021/10/19 11:24:24;;;;;;;14.20;7.57;;;18.40;86.50;;;;;;5067740;28;20056;-83
2021/10/19 11:26:51;;;;;;;12.95;7.72;;;18.40;86.50;;;;;;5083277;28;20071;-84
2021/10/19 11:29:19;;;;;;;12.65;7.85;;;18.40;86.40;;;;;;5071638;28;20094;-83
2021/10/19 11:31:48;;;;;;;13.77;8.02;;;18.40;86.30;;;;;;5070513;28;20045;-84
2021/10/19 11:34:15;;;;;;;14.75;8.95;;;18.40;86.20;;;;;;5072269;28;20522;-83
2021/10/19 11:36:43;;;;;;;16.73;8.75;;;18.50;86.30;;;;;;5069790;28;20147;-83
2021/10/19 11:39:12;;;;;;;14.93;8.65;;;18.60;86.30;;;;;;5071472;28;20094;-83
2021/10/19 11:41:44;;;;;;;14.77;8.40;;;18.60;86.30;;;;;;5088172;28;20048;-84
2021/10/19 11:44:12;;;;;;;13.23;8.70;;;18.70;86.30;;;;;;5072724;28;20459;-84
2021/10/19 11:46:41;;;;;;;13.23;8.68;;;18.80;86.20;;;;;;5071792;28;20056;-83
2021/10/19 11:49:12;;;;;;;17.20;8.73;;;18.80;86.10;;;;;;5071615;28;20051;-84
2021/10/19 11:51:42;;;;;;;15.27;8.65;;;18.90;86.10;;;;;;5069262;28;20084;-83
2021/10/19 11:54:10;;;;;;;14.85;9.07;;;18.90;86.00;;;;;;5071421;28;20493;-84
2021/10/19 11:56:37;;;;;;;14.27;9.07;;;19.00;85.80;;;;;;5073948;28;20044;-83
2021/10/19 11:59:06;;;;;;;13.68;8.63;;;19.10;85.70;;;;;;5071062;28;20052;-82
2021/10/19 12:01:43;;;;;;;13.10;7.10;;;19.10;85.50;;;;;;5071589;28;20102;-84
2021/10/19 12:04:12;;;;;;;10.80;7.53;;;19.30;85.20;;;;;;5071620;28;20057;-83
2021/10/19 12:06:46;;;;;;;13.25;9.07;;;19.30;85.00;;;;;;5068893;28;20052;-83
2021/10/19 12:09:26;;;;;;;12.02;7.95;;;19.40;84.70;;;;;;5069964;28;20590;-83
2021/10/19 12:11:54;;;;;;;11.73;7.78;;;19.40;84.50;;;;;;5082973;28;20059;-84
2021/10/19 12:14:36;;;;;;;11.13;8.23;;;19.50;84.20;;;;;;5070603;28;20527;-83
2021/10/19 12:17:08;;;;;;;11.68;8.55;;;19.60;83.90;;;;;;5071737;28;20049;-83
2021/10/19 12:19:39;;;;;;;12.05;9.52;;;19.70;83.70;;;;;;5071819;28;20041;-83
2021/10/19 12:22:09;;;;;;;12.70;8.93;;;19.80;83.30;;;;;;5071213;28;20044;-86
2021/10/19 12:24:37;;;;;;;11.80;8.80;;;19.90;83.00;;;;;;5068197;28;20045;-85
2021/10/19 12:27:08;;;;;;;13.55;8.82;;;19.90;82.70;;;;;;5071998;28;20113;-86
2021/10/19 12:29:36;;;;;;;10.98;8.90;;;19.90;82.40;;;;;;5073334;28;20049;-86
2021/10/19 12:32:04;;;;;;;12.02;9.63;;;20.00;82.10;;;;;;5074916;28;20106;-86
2021/10/19 12:34:32;;;;;;;16.33;9.70;;;20.10;81.80;;;;;;5076106;28;20105;-85
2021/10/19 12:37:05;;;;;;;18.02;10.18;;;20.20;81.40;;;;;;5073451;28;20496;-86
2021/10/19 12:39:44;;;;;;;12.45;9.55;;;20.30;81.00;;;;;;5070480;28;20049;-85